Time;durP1;ratioP1;P1;durP2;ratioP2;P2;SDS_P1;SDS_P2;PMS_P1;PMS_P2;Temp;Humidity;BMP_temperature;BMP_pressure;BME280_temperature;BME280_humidity;BME280_pressure;Samples;Min_cycle;Max_cycle;Signal;HPM_P1;HPM_P2
2022/01/25 00:25:55;;;;;;;57.33;30.23;;;3.90;99.90;;;;;;5052758;28;20040;-79
2022/01/25 00:33:24;;;;;;;62.53;31.27;;;3.80;99.90;;;;;;5056541;28;20076;-79
2022/01/25 00:35:49;;;;;;;57.33;31.48;;;3.90;99.90;;;;;;5054243;28;20048;-79
2022/01/25 00:38:15;;;;;;;54.75;33.17;;;4.00;99.90;;;;;;5065809;28;20033;-80
2022/01/25 00:40:40;;;;;;;55.38;31.02;;;3.90;99.90;;;;;;5059134;28;20048;-79
2022/01/25 00:43:06;;;;;;;57.50;31.00;;;4.00;99.90;;;;;;5065363;28;20460;-79
2022/01/25 00:45:32;;;;;;;54.50;30.58;;;3.90;99.90;;;;;;5057183;28;20041;-79
2022/01/25 00:47:57;;;;;;;51.75;28.55;;;4.00;99.90;;;;;;5064166;28;20041;-79
2022/01/25 00:50:24;;;;;;;59.55;33.17;;;3.90;99.90;;;;;;5066598;28;20040;-79
2022/01/25 00:55:35;;;;;;;57.72;29.83;;;3.90;99.90;;;;;;5019723;28;20068;-79
2022/01/25 00:58:02;;;;;;;52.72;28.38;;;3.90;99.90;;;;;;5064346;28;20049;-79
2022/01/25 01:00:28;;;;;;;55.67;29.98;;;3.90;99.90;;;;;;5056198;28;20033;-79
2022/01/25 01:02:54;;;;;;;51.67;30.02;;;3.90;99.90;;;;;;5056778;28;20045;-79
2022/01/25 01:05:21;;;;;;;61.13;33.00;;;3.90;99.90;;;;;;5045685;28;20088;-79
2022/01/25 01:07:47;;;;;;;61.47;33.00;;;3.80;99.90;;;;;;5056345;28;20048;-79
2022/01/25 01:10:16;;;;;;;58.25;30.50;;;3.90;99.90;;;;;;5067016;28;20029;-79
2022/01/25 01:29:23;;;;;;;65.22;34.72;;;3.80;99.90;;;;;;5066422;28;20041;-79
2022/01/25 01:37:18;;;;;;;61.58;32.60;;;3.80;99.90;;;;;;5058274;28;20060;-79
2022/01/25 01:40:14;;;;;;;68.10;34.42;;;3.80;99.90;;;;;;5051769;28;20048;-79
2022/01/25 01:48:02;;;;;;;61.70;33.57;;;3.70;99.90;;;;;;5052390;28;20080;-79
2022/01/25 01:50:31;;;;;;;62.22;31.90;;;4.00;99.90;;;;;;5068776;28;20275;-79
2022/01/25 01:52:57;;;;;;;65.85;33.38;;;3.80;99.90;;;;;;5051749;28;20041;-79
2022/01/25 01:55:25;;;;;;;62.50;33.30;;;3.80;99.90;;;;;;5040938;28;20656;-79
2022/01/25 01:57:51;;;;;;;64.15;32.22;;;3.80;99.90;;;;;;5068704;28;20048;-79
2022/01/25 02:00:20;;;;;;;60.42;32.42;;;3.80;99.90;;;;;;5057046;28;20049;-79
2022/01/25 02:02:46;;;;;;;56.75;30.92;;;3.80;99.90;;;;;;5066952;28;20013;-79
2022/01/25 02:05:12;;;;;;;61.00;32.83;;;3.80;99.90;;;;;;5061330;28;20145;-79
2022/01/25 02:07:37;;;;;;;62.92;33.35;;;3.80;99.90;;;;;;5067261;28;20041;-79
2022/01/25 02:10:06;;;;;;;62.38;33.58;;;3.80;99.90;;;;;;5067913;28;20041;-79
2022/01/25 02:12:33;;;;;;;58.40;30.92;;;3.70;99.90;;;;;;5068894;28;20071;-79
2022/01/25 02:15:00;;;;;;;61.88;31.83;;;3.70;99.90;;;;;;5054082;28;20100;-79
2022/01/25 02:23:22;;;;;;;57.45;31.63;;;3.80;99.90;;;;;;5033823;28;20523;-79
2022/01/25 02:25:50;;;;;;;60.95;31.95;;;3.80;99.90;;;;;;5068819;28;20040;-79
2022/01/25 02:28:16;;;;;;;60.08;32.50;;;3.80;99.90;;;;;;5072157;28;20056;-79
2022/01/25 02:30:43;;;;;;;64.00;35.38;;;3.80;99.90;;;;;;5052279;28;20055;-79
2022/01/25 02:33:09;;;;;;;67.63;34.08;;;3.70;99.90;;;;;;5072241;28;20040;-79
2022/01/25 02:35:35;;;;;;;62.58;31.88;;;3.70;99.90;;;;;;5055182;28;20064;-79
2022/01/25 02:38:01;;;;;;;61.88;33.90;;;3.70;99.90;;;;;;5072176;28;20041;-79
2022/01/25 02:40:27;;;;;;;58.05;32.28;;;3.80;99.90;;;;;;5069832;28;20041;-79
2022/01/25 02:42:53;;;;;;;66.85;32.67;;;3.80;99.90;;;;;;5071321;28;20037;-79
2022/01/25 02:45:19;;;;;;;58.90;32.08;;;3.80;99.90;;;;;;5053730;28;20053;-79
2022/01/25 02:50:29;;;;;;;62.63;32.20;;;3.70;99.90;;;;;;5053999;28;20045;-79
2022/01/25 02:52:55;;;;;;;57.67;32.95;;;3.70;99.90;;;;;;5069637;28;20044;-79
2022/01/25 02:55:21;;;;;;;61.55;31.92;;;3.70;99.90;;;;;;5071205;28;20033;-79
2022/01/25 02:57:48;;;;;;;63.53;33.33;;;3.80;99.90;;;;;;5069453;28;20052;-79
2022/01/25 03:00:15;;;;;;;65.95;37.17;;;3.70;99.90;;;;;;5072211;28;20041;-79
2022/01/25 03:02:41;;;;;;;62.67;34.58;;;3.70;99.90;;;;;;5060600;28;20041;-79
2022/01/25 03:05:07;;;;;;;60.13;31.38;;;3.70;99.90;;;;;;5071063;28;20075;-79
2022/01/25 03:07:34;;;;;;;63.05;35.42;;;3.70;99.90;;;;;;5068300;28;20048;-79
2022/01/25 03:10:00;;;;;;;70.93;36.05;;;3.70;99.90;;;;;;5072840;28;20037;-80
2022/01/25 03:12:52;;;;;;;64.25;34.58;;;3.70;99.90;;;;;;5068251;28;20040;-79
2022/01/25 03:17:58;;;;;;;65.95;35.25;;;3.80;99.90;;;;;;5066269;28;20041;-79
2022/01/25 03:23:18;;;;;;;62.65;34.08;;;3.70;99.90;;;;;;5034219;28;20073;-79
2022/01/25 03:25:44;;;;;;;60.40;32.88;;;3.70;99.90;;;;;;5031898;28;20053;-79
2022/01/25 03:28:09;;;;;;;65.30;34.10;;;3.70;99.90;;;;;;5034668;28;20046;-79
2022/01/25 03:30:35;;;;;;;58.88;33.17;;;3.70;99.90;;;;;;5034975;28;20044;-79
2022/01/25 03:33:00;;;;;;;64.68;33.47;;;3.70;99.90;;;;;;5070750;28;20051;-79
2022/01/25 03:35:26;;;;;;;58.35;31.98;;;3.70;99.90;;;;;;5067989;28;20113;-79
2022/01/25 03:37:52;;;;;;;66.55;34.15;;;3.70;99.90;;;;;;5072504;28;20041;-79
2022/01/25 03:40:17;;;;;;;66.95;34.60;;;3.60;99.90;;;;;;5064047;28;20048;-79
2022/01/25 03:42:44;;;;;;;59.72;34.33;;;3.70;99.90;;;;;;5056977;28;20045;-79
2022/01/25 03:45:17;;;;;;;63.80;36.67;;;3.60;99.90;;;;;;5068893;28;20112;-79
2022/01/25 03:50:27;;;;;;;62.85;34.28;;;3.60;99.90;;;;;;5070385;28;20025;-79
2022/01/25 03:52:53;;;;;;;54.20;29.92;;;3.80;99.90;;;;;;5066391;28;20073;-79
2022/01/25 03:55:19;;;;;;;60.47;32.78;;;3.60;99.90;;;;;;5071133;28;20097;-79
2022/01/25 03:57:44;;;;;;;58.50;30.52;;;3.60;99.90;;;;;;5069897;28;20041;-79
2022/01/25 04:00:11;;;;;;;66.47;33.92;;;3.70;99.90;;;;;;5061660;28;20048;-79
2022/01/25 04:02:45;;;;;;;62.13;34.58;;;3.70;99.90;;;;;;5064056;28;20167;-79
2022/01/25 04:05:19;;;;;;;64.32;33.60;;;3.70;99.90;;;;;;5054867;28;20048;-79
2022/01/25 04:07:50;;;;;;;66.83;32.53;;;3.70;99.90;;;;;;5068222;28;20085;-79
2022/01/25 04:10:17;;;;;;;57.40;32.17;;;3.70;99.90;;;;;;5071739;28;20272;-79
2022/01/25 04:12:44;;;;;;;62.15;32.70;;;3.70;99.90;;;;;;5039155;28;20473;-79
2022/01/25 04:15:10;;;;;;;58.88;31.98;;;3.70;99.90;;;;;;5070571;28;20032;-79
2022/01/25 04:17:36;;;;;;;59.95;33.45;;;3.70;99.90;;;;;;5051898;28;20119;-79
2022/01/25 04:20:15;;;;;;;55.83;32.92;;;3.70;99.90;;;;;;5043989;28;20104;-80
2022/01/25 04:25:25;;;;;;;57.67;31.17;;;3.70;99.90;;;;;;5055134;28;20508;-80
2022/01/25 04:27:51;;;;;;;64.82;34.00;;;3.70;99.90;;;;;;5053357;28;20037;-81
2022/01/25 04:30:17;;;;;;;64.70;33.03;;;3.70;99.90;;;;;;5047143;28;20446;-80
2022/01/25 04:32:49;;;;;;;60.63;33.63;;;3.70;99.90;;;;;;5020222;28;20082;-80
2022/01/25 04:54:22;;;;;;;56.42;32.00;;;3.70;99.90;;;;;;5021657;28;20049;-80
2022/01/25 04:59:50;;;;;;;62.05;31.58;;;3.70;99.90;;;;;;5028408;28;20059;-81
2022/01/25 05:05:03;;;;;;;58.70;33.28;;;3.70;99.90;;;;;;5055219;28;20099;-81
2022/01/25 05:07:37;;;;;;;66.85;34.47;;;3.70;99.90;;;;;;5059762;28;20045;-81
2022/01/25 05:10:04;;;;;;;66.97;33.95;;;3.70;99.90;;;;;;5057456;28;20080;-80
2022/01/25 05:12:44;;;;;;;57.83;30.88;;;3.70;99.90;;;;;;5043956;28;20033;-81
2022/01/25 05:15:38;;;;;;;58.03;31.02;;;3.70;99.90;;;;;;5024757;28;20046;-80
2022/01/25 05:23:17;;;;;;;62.53;33.63;;;3.70;99.90;;;;;;5057451;28;20047;-80
2022/01/25 05:25:42;;;;;;;60.20;29.42;;;3.70;99.90;;;;;;5058838;28;20100;-81
2022/01/25 05:28:08;;;;;;;65.00;33.47;;;3.70;99.90;;;;;;5057700;28;20096;-81
2022/01/25 05:30:33;;;;;;;63.22;32.25;;;3.80;99.90;;;;;;5041828;28;20432;-80
2022/01/25 05:32:59;;;;;;;61.38;32.45;;;3.70;99.90;;;;;;5057030;28;20071;-81
2022/01/25 05:35:25;;;;;;;61.45;31.15;;;3.80;99.90;;;;;;5059046;28;20061;-81
2022/01/25 05:37:50;;;;;;;57.70;31.38;;;3.80;99.90;;;;;;5056955;28;20120;-80
2022/01/25 05:40:27;;;;;;;61.40;33.22;;;3.80;99.90;;;;;;5059325;28;20452;-80
2022/01/25 05:45:50;;;;;;;67.93;31.27;;;3.80;99.90;;;;;;5041025;28;20087;-79
2022/01/25 05:48:16;;;;;;;57.45;31.08;;;3.80;99.90;;;;;;5040476;28;20077;-80
2022/01/25 05:50:41;;;;;;;58.30;31.58;;;3.80;99.90;;;;;;5040841;28;20124;-81
2022/01/25 05:53:07;;;;;;;68.18;32.95;;;3.80;99.90;;;;;;5058377;28;20048;-80
2022/01/25 05:55:32;;;;;;;56.58;31.27;;;3.80;99.90;;;;;;5057474;28;20555;-79
2022/01/25 05:57:58;;;;;;;62.03;30.77;;;3.80;99.90;;;;;;5041228;28;20057;-81
2022/01/25 06:00:24;;;;;;;57.78;28.92;;;3.80;99.90;;;;;;5053017;28;20067;-81
2022/01/25 06:02:54;;;;;;;58.03;31.48;;;3.80;99.90;;;;;;5041587;28;20037;-80
2022/01/25 06:05:19;;;;;;;62.50;31.23;;;3.80;99.90;;;;;;5039308;28;20052;-81
2022/01/25 06:07:45;;;;;;;59.88;31.92;;;3.80;99.90;;;;;;5040703;28;20041;-80
2022/01/25 06:10:11;;;;;;;63.40;33.20;;;3.80;99.90;;;;;;5023122;28;20048;-81
2022/01/25 06:12:36;;;;;;;65.35;32.63;;;3.70;99.90;;;;;;5044771;28;20064;-80
2022/01/25 06:15:03;;;;;;;60.40;31.10;;;3.70;99.90;;;;;;5039627;28;20459;-80
2022/01/25 06:17:28;;;;;;;58.80;31.45;;;3.80;99.90;;;;;;5041450;28;20435;-80
2022/01/25 06:19:54;;;;;;;70.13;34.20;;;3.80;99.90;;;;;;5039418;28;20041;-81
2022/01/25 06:22:20;;;;;;;63.15;34.63;;;3.80;99.90;;;;;;5040135;28;20044;-80
2022/01/25 06:24:45;;;;;;;59.60;29.92;;;3.80;99.90;;;;;;5039774;28;20037;-81
2022/01/25 06:27:11;;;;;;;60.30;32.45;;;3.70;99.90;;;;;;5039790;28;20076;-81
2022/01/25 06:29:37;;;;;;;61.42;30.77;;;3.80;99.90;;;;;;5040389;28;20045;-81
2022/01/25 06:32:02;;;;;;;59.65;32.97;;;3.80;99.90;;;;;;5039806;28;20048;-80
2022/01/25 06:34:28;;;;;;;59.60;32.25;;;3.80;99.90;;;;;;5040344;28;20041;-80
2022/01/25 06:36:54;;;;;;;53.97;28.15;;;3.70;99.90;;;;;;5039064;28;20036;-81
2022/01/25 06:39:20;;;;;;;62.47;31.02;;;3.80;99.90;;;;;;5040178;28;20041;-81
2022/01/25 06:41:46;;;;;;;59.58;29.52;;;3.80;99.90;;;;;;5039715;28;20376;-81
2022/01/25 06:44:11;;;;;;;54.15;28.55;;;3.80;99.90;;;;;;5039918;28;20045;-80
2022/01/25 06:46:37;;;;;;;59.10;31.65;;;3.80;99.90;;;;;;5039092;28;20036;-80
2022/01/25 06:49:03;;;;;;;63.67;31.83;;;3.80;99.90;;;;;;5040385;28;20068;-81
2022/01/25 06:51:29;;;;;;;66.90;33.78;;;3.80;99.90;;;;;;5038550;28;20040;-81
2022/01/25 06:53:55;;;;;;;61.00;30.73;;;3.80;99.90;;;;;;5040330;28;20428;-80
2022/01/25 06:56:20;;;;;;;69.45;35.50;;;3.80;99.90;;;;;;5042163;28;20092;-81
2022/01/25 06:58:46;;;;;;;67.70;33.65;;;3.80;99.90;;;;;;5041415;28;20033;-80
2022/01/25 07:01:12;;;;;;;65.47;31.23;;;3.80;99.90;;;;;;5038748;28;20037;-80
2022/01/25 07:03:37;;;;;;;57.58;30.55;;;3.90;99.90;;;;;;5039952;28;20047;-81
2022/01/25 07:06:03;;;;;;;64.22;32.78;;;3.80;99.90;;;;;;5038482;28;20320;-81
2022/01/25 07:08:28;;;;;;;56.65;30.08;;;3.80;99.90;;;;;;5039628;28;20083;-81
2022/01/25 07:10:54;;;;;;;57.03;30.88;;;3.80;99.90;;;;;;5038937;28;20048;-81
2022/01/25 07:13:20;;;;;;;69.57;33.55;;;3.80;99.90;;;;;;5039302;28;20033;-80
2022/01/25 07:15:45;;;;;;;65.38;35.17;;;3.80;99.90;;;;;;5039364;28;20472;-81
2022/01/25 07:18:11;;;;;;;71.45;31.13;;;3.80;99.90;;;;;;5038126;28;20124;-81
2022/01/25 07:20:37;;;;;;;63.35;31.40;;;3.80;99.90;;;;;;5039678;28;20136;-80
2022/01/25 07:23:02;;;;;;;58.75;30.02;;;3.80;99.90;;;;;;5038797;28;20052;-80
2022/01/25 07:25:28;;;;;;;62.83;33.25;;;3.80;99.90;;;;;;5039094;28;20049;-81
2022/01/25 07:27:54;;;;;;;63.70;32.13;;;3.80;99.90;;;;;;5037618;28;20043;-81
2022/01/25 07:30:19;;;;;;;61.58;32.72;;;3.80;99.90;;;;;;5040086;28;20124;-81
2022/01/25 07:32:46;;;;;;;65.78;33.97;;;3.70;99.90;;;;;;5038128;28;20044;-80
2022/01/25 07:35:11;;;;;;;67.32;34.75;;;3.80;99.90;;;;;;5039218;28;20049;-80
2022/01/25 07:37:37;;;;;;;62.38;34.42;;;3.80;99.90;;;;;;5037978;28;20116;-81
2022/01/25 07:40:04;;;;;;;58.22;29.77;;;3.80;99.90;;;;;;5025250;28;20352;-81
2022/01/25 07:42:33;;;;;;;59.55;32.10;;;3.80;99.90;;;;;;5040080;28;20085;-81
2022/01/25 07:44:59;;;;;;;65.20;33.75;;;3.80;99.90;;;;;;5039129;28;20076;-81
2022/01/25 07:47:24;;;;;;;74.07;35.00;;;3.80;99.90;;;;;;5037242;28;20041;-81
2022/01/25 07:49:50;;;;;;;63.70;31.70;;;3.80;99.90;;;;;;5039230;28;20072;-81
2022/01/25 07:52:16;;;;;;;57.95;29.70;;;3.80;99.90;;;;;;5038370;28;20470;-81
2022/01/25 07:54:42;;;;;;;59.47;31.10;;;3.80;99.90;;;;;;5038592;28;20123;-81
2022/01/25 07:57:08;;;;;;;60.33;32.00;;;3.80;99.90;;;;;;5037742;28;20049;-81
2022/01/25 07:59:33;;;;;;;60.28;35.17;;;3.80;99.90;;;;;;5038627;28;20052;-81
2022/01/25 08:01:59;;;;;;;65.32;33.92;;;3.80;99.90;;;;;;5038276;28;20408;-81
2022/01/25 08:04:26;;;;;;;64.85;36.10;;;3.80;99.90;;;;;;5037512;28;20389;-81
2022/01/25 08:06:52;;;;;;;64.53;33.20;;;3.80;99.90;;;;;;5037818;28;20048;-81
2022/01/25 08:09:19;;;;;;;67.55;34.05;;;3.80;99.90;;;;;;5038561;28;20033;-82
2022/01/25 08:11:44;;;;;;;60.63;31.33;;;3.80;99.90;;;;;;5038680;28;20037;-81
2022/01/25 08:14:16;;;;;;;68.20;32.35;;;3.80;99.90;;;;;;5037197;28;20094;-82
2022/01/25 08:16:44;;;;;;;61.00;31.20;;;3.90;99.90;;;;;;5020567;28;20087;-81
2022/01/25 08:19:11;;;;;;;59.17;31.20;;;3.90;99.90;;;;;;5037405;28;20117;-82
2022/01/25 08:21:36;;;;;;;66.93;35.10;;;3.90;99.90;;;;;;5038338;28;20045;-81
2022/01/25 08:24:04;;;;;;;65.28;32.10;;;3.90;99.90;;;;;;5020487;28;20047;-81
2022/01/25 08:26:29;;;;;;;62.55;32.53;;;3.90;99.90;;;;;;5038642;28;20036;-81
2022/01/25 08:28:55;;;;;;;55.42;30.80;;;3.90;99.90;;;;;;5054959;28;20045;-81
2022/01/25 08:31:21;;;;;;;57.28;29.73;;;3.90;99.90;;;;;;5038589;28;20503;-81
2022/01/25 08:33:46;;;;;;;67.90;29.95;;;4.00;99.90;;;;;;5037589;28;20033;-79
2022/01/25 08:36:12;;;;;;;59.63;30.23;;;4.00;99.90;;;;;;5038542;28;20037;-79
2022/01/25 08:38:38;;;;;;;62.92;32.20;;;4.00;99.90;;;;;;5037299;28;20483;-79
2022/01/25 08:41:06;;;;;;;61.38;30.63;;;4.00;99.90;;;;;;5042235;28;20037;-79
2022/01/25 08:43:35;;;;;;;60.00;31.83;;;4.00;99.90;;;;;;5025222;28;20059;-79
2022/01/25 08:46:02;;;;;;;58.67;32.05;;;4.00;99.90;;;;;;5041826;28;20048;-79
2022/01/25 08:48:27;;;;;;;60.22;30.73;;;4.00;99.90;;;;;;5042318;28;20117;-81
2022/01/25 08:50:53;;;;;;;59.42;30.98;;;4.00;99.90;;;;;;5041510;28;20076;-81
2022/01/25 08:53:19;;;;;;;60.08;30.45;;;4.00;99.90;;;;;;5042065;28;20098;-80
2022/01/25 08:55:44;;;;;;;64.63;32.22;;;4.10;99.90;;;;;;5040464;28;20040;-81
2022/01/25 08:58:10;;;;;;;57.13;30.90;;;4.10;99.90;;;;;;5025935;28;20068;-81
2022/01/25 09:00:36;;;;;;;61.10;31.40;;;4.10;99.90;;;;;;5040558;28;20033;-81
2022/01/25 09:03:01;;;;;;;66.05;30.98;;;4.10;99.90;;;;;;5025182;28;20478;-81
2022/01/25 09:05:27;;;;;;;64.57;31.80;;;4.10;99.90;;;;;;5040059;28;20041;-81
2022/01/25 09:07:54;;;;;;;59.45;31.42;;;4.10;99.90;;;;;;5042003;28;20048;-81
2022/01/25 09:10:19;;;;;;;59.90;29.27;;;4.00;99.90;;;;;;5041030;28;20048;-81
2022/01/25 09:12:45;;;;;;;59.22;31.13;;;4.10;99.90;;;;;;5041727;28;20033;-80
2022/01/25 09:15:11;;;;;;;62.30;31.05;;;4.00;99.90;;;;;;5023931;28;20075;-80
2022/01/25 09:17:36;;;;;;;57.50;29.75;;;4.10;99.90;;;;;;5041831;28;20037;-79
2022/01/25 09:20:04;;;;;;;60.50;30.10;;;4.10;99.90;;;;;;5040899;28;20085;-79
2022/01/25 09:22:29;;;;;;;63.22;35.03;;;4.10;99.90;;;;;;5040808;28;20045;-79
2022/01/25 09:24:55;;;;;;;65.53;32.85;;;4.10;99.90;;;;;;5041960;28;20218;-79
2022/01/25 09:27:20;;;;;;;63.38;32.67;;;4.10;99.90;;;;;;5040207;28;20048;-79
2022/01/25 09:29:47;;;;;;;62.47;30.70;;;4.10;99.90;;;;;;5040808;28;20041;-79
2022/01/25 09:32:13;;;;;;;66.45;32.78;;;4.20;99.90;;;;;;5040479;28;20041;-79
2022/01/25 09:34:38;;;;;;;64.82;31.70;;;4.10;99.90;;;;;;5040743;28;20106;-79
2022/01/25 09:37:05;;;;;;;61.17;31.80;;;4.20;99.90;;;;;;5040151;28;20037;-79
2022/01/25 09:39:30;;;;;;;68.45;34.67;;;4.20;99.90;;;;;;5040833;28;20041;-78
2022/01/25 09:41:56;;;;;;;61.67;31.45;;;4.20;99.90;;;;;;5040074;28;20040;-79
2022/01/25 09:44:23;;;;;;;62.25;32.22;;;4.20;99.90;;;;;;5040755;28;20103;-80
2022/01/25 09:46:53;;;;;;;63.08;31.55;;;4.30;99.90;;;;;;5039317;28;20041;-79
2022/01/25 09:49:19;;;;;;;62.05;32.75;;;4.30;99.90;;;;;;5041256;28;20039;-81
2022/01/25 09:51:47;;;;;;;65.35;32.17;;;4.30;99.90;;;;;;5039143;28;20045;-81
2022/01/25 09:54:13;;;;;;;64.40;31.00;;;4.20;99.90;;;;;;5040608;28;20242;-82
2022/01/25 09:56:39;;;;;;;58.65;29.30;;;4.20;99.90;;;;;;5039035;28;20491;-81
2022/01/25 09:59:04;;;;;;;70.20;36.08;;;4.30;99.90;;;;;;5041670;28;20090;-81
2022/01/25 10:01:31;;;;;;;68.53;34.30;;;4.20;99.90;;;;;;5039577;28;20080;-81
2022/01/25 10:03:59;;;;;;;67.35;33.90;;;4.20;99.90;;;;;;5040073;28;20306;-81
2022/01/25 10:06:30;;;;;;;61.10;32.00;;;4.30;99.90;;;;;;5022512;28;20053;-81
2022/01/25 10:08:56;;;;;;;66.00;34.25;;;4.20;99.90;;;;;;5039555;28;20045;-81
2022/01/25 10:11:23;;;;;;;64.40;31.38;;;4.30;99.90;;;;;;5039463;28;20072;-81
2022/01/25 10:13:58;;;;;;;65.55;32.58;;;4.30;99.90;;;;;;5039150;28;20492;-82
2022/01/25 10:16:35;;;;;;;62.30;32.08;;;4.30;99.90;;;;;;5039399;28;20049;-81
2022/01/25 10:19:07;;;;;;;62.45;33.97;;;4.30;99.90;;;;;;5039903;28;20045;-81
2022/01/25 10:21:50;;;;;;;68.22;33.90;;;4.40;99.90;;;;;;5039836;28;20041;-81
2022/01/25 10:24:22;;;;;;;65.38;31.98;;;4.40;99.90;;;;;;5038617;28;20392;-81
2022/01/25 10:27:02;;;;;;;61.75;31.70;;;4.40;99.90;;;;;;5039017;28;20092;-81
2022/01/25 10:29:34;;;;;;;55.30;30.23;;;4.40;99.90;;;;;;5038928;28;20044;-81
2022/01/25 10:32:22;;;;;;;57.90;29.00;;;4.40;99.90;;;;;;5037865;28;20063;-81
2022/01/25 10:34:49;;;;;;;61.50;33.08;;;4.30;99.90;;;;;;5038322;28;20041;-81
2022/01/25 10:37:25;;;;;;;61.47;30.48;;;4.30;99.90;;;;;;5037994;28;20128;-81
2022/01/25 10:39:52;;;;;;;62.53;31.70;;;4.30;99.90;;;;;;5039857;28;20063;-81
2022/01/25 10:42:24;;;;;;;58.03;29.67;;;4.30;99.90;;;;;;5038692;28;20072;-81
2022/01/25 10:45:04;;;;;;;63.13;32.85;;;4.30;99.90;;;;;;5038380;28;20051;-81
2022/01/25 10:47:50;;;;;;;60.08;31.10;;;4.40;99.90;;;;;;5037504;28;20403;-81
2022/01/25 10:50:16;;;;;;;65.38;32.58;;;4.40;99.90;;;;;;5038045;28;20040;-81
2022/01/25 10:52:41;;;;;;;70.38;32.58;;;4.40;99.90;;;;;;5037993;28;20091;-80
2022/01/25 10:55:08;;;;;;;59.35;30.08;;;4.40;99.90;;;;;;5037919;28;20037;-81
2022/01/25 10:57:34;;;;;;;58.20;29.80;;;4.40;99.90;;;;;;5037482;28;20041;-81
2022/01/25 11:00:08;;;;;;;60.35;31.88;;;4.40;99.90;;;;;;5021444;28;20504;-81
2022/01/25 11:02:34;;;;;;;66.43;34.28;;;4.40;99.90;;;;;;5037438;28;20559;-81
2022/01/25 11:05:08;;;;;;;65.88;32.08;;;4.30;99.90;;;;;;5037846;28;20076;-80
2022/01/25 11:07:38;;;;;;;67.22;32.10;;;4.30;99.90;;;;;;5038182;28;20052;-81
2022/01/25 11:10:05;;;;;;;66.40;32.22;;;4.30;99.90;;;;;;5036465;28;20056;-79
2022/01/25 11:12:36;;;;;;;59.25;30.75;;;4.30;99.90;;;;;;5034433;28;20040;-80
2022/01/25 11:15:03;;;;;;;62.63;33.03;;;4.30;99.90;;;;;;5034709;28;20041;-79
2022/01/25 11:17:31;;;;;;;61.90;30.65;;;4.30;99.90;;;;;;5034490;28;20068;-79
2022/01/25 11:19:58;;;;;;;69.15;35.83;;;4.30;99.90;;;;;;5034638;28;20052;-79
2022/01/25 11:22:24;;;;;;;65.53;35.03;;;4.30;99.90;;;;;;5034646;28;20059;-79
2022/01/25 11:25:00;;;;;;;69.15;31.80;;;4.30;99.90;;;;;;5036433;28;20040;-80
2022/01/25 11:27:28;;;;;;;60.65;30.45;;;4.30;99.90;;;;;;5037144;28;20128;-80
2022/01/25 11:29:56;;;;;;;70.55;32.97;;;4.30;99.90;;;;;;5037542;28;20107;-79
2022/01/25 11:32:33;;;;;;;69.07;33.60;;;4.30;99.90;;;;;;5037009;28;20056;-80
2022/01/25 11:34:59;;;;;;;63.58;31.10;;;4.30;99.90;;;;;;5037843;28;20052;-80
2022/01/25 11:37:38;;;;;;;62.92;31.67;;;4.30;99.90;;;;;;5036988;28;20310;-80
2022/01/25 11:40:25;;;;;;;65.28;32.33;;;4.30;99.90;;;;;;5036826;28;20059;-81
2022/01/25 11:42:55;;;;;;;65.50;33.58;;;4.40;99.90;;;;;;5026612;28;20201;-80
2022/01/25 11:45:23;;;;;;;66.55;31.92;;;4.40;99.90;;;;;;5037262;28;20053;-80
2022/01/25 11:47:51;;;;;;;59.00;31.83;;;4.50;99.90;;;;;;5036882;28;20137;-80
2022/01/25 11:50:18;;;;;;;63.08;31.70;;;4.50;99.90;;;;;;5037763;28;20100;-80
2022/01/25 11:52:56;;;;;;;64.30;30.40;;;4.50;99.90;;;;;;5037327;28;20066;-81
2022/01/25 11:55:35;;;;;;;64.00;32.55;;;4.50;99.90;;;;;;5037283;28;20095;-80
2022/01/25 11:58:08;;;;;;;62.70;32.13;;;4.50;99.90;;;;;;5039859;28;20124;-81
2022/01/25 12:00:46;;;;;;;68.70;32.30;;;4.50;99.90;;;;;;5037786;28;20045;-81
2022/01/25 12:03:32;;;;;;;59.53;31.05;;;4.50;99.90;;;;;;5038049;28;20052;-81
2022/01/25 12:06:04;;;;;;;66.25;30.42;;;4.40;99.90;;;;;;5037296;28;20048;-81
2022/01/25 12:08:55;;;;;;;53.88;29.10;;;4.40;99.90;;;;;;5037486;28;20052;-80
2022/01/25 12:11:28;;;;;;;66.68;31.52;;;4.40;99.90;;;;;;5037380;28;20048;-81
2022/01/25 12:14:18;;;;;;;57.08;29.63;;;4.40;99.90;;;;;;5036808;28;20041;-81
2022/01/25 12:16:54;;;;;;;64.10;30.52;;;4.50;99.90;;;;;;5037199;28;20069;-81
2022/01/25 12:19:32;;;;;;;63.65;31.77;;;4.50;99.90;;;;;;5037262;28;20053;-81
2022/01/25 12:22:06;;;;;;;61.33;30.92;;;4.50;99.90;;;;;;5039090;28;20438;-82
2022/01/25 12:24:50;;;;;;;58.85;30.00;;;4.50;99.90;;;;;;5037775;28;20101;-81
2022/01/25 12:27:44;;;;;;;65.72;29.92;;;4.40;99.90;;;;;;5037774;28;20128;-81
2022/01/25 12:30:13;;;;;;;65.50;31.83;;;4.40;99.90;;;;;;5030398;28;20056;-81
2022/01/25 12:32:49;;;;;;;63.70;32.25;;;4.40;99.90;;;;;;5038316;28;20080;-81
2022/01/25 12:35:17;;;;;;;64.30;31.65;;;4.40;99.90;;;;;;5023096;28;20045;-81
2022/01/25 12:37:43;;;;;;;64.53;32.70;;;4.40;99.90;;;;;;5037050;28;20045;-81
2022/01/25 12:40:31;;;;;;;64.93;31.83;;;4.40;99.90;;;;;;5038486;28;20051;-80
2022/01/25 12:43:00;;;;;;;64.38;31.92;;;4.40;99.90;;;;;;5039629;28;20065;-81
2022/01/25 12:45:29;;;;;;;81.00;34.45;;;4.40;99.90;;;;;;5037646;28;20051;-81
2022/01/25 12:48:01;;;;;;;65.63;31.50;;;4.50;99.90;;;;;;5036146;28;20381;-81
2022/01/25 12:50:28;;;;;;;73.70;35.95;;;4.50;99.90;;;;;;5053994;28;20053;-81
2022/01/25 12:52:54;;;;;;;59.80;32.67;;;4.50;99.90;;;;;;5056250;28;20507;-81
2022/01/25 12:55:26;;;;;;;69.57;34.80;;;4.50;99.90;;;;;;5039955;28;20053;-81
2022/01/25 12:57:53;;;;;;;66.55;33.33;;;4.50;99.90;;;;;;5044671;28;20028;-81
2022/01/25 13:00:21;;;;;;;73.30;35.40;;;4.50;99.90;;;;;;5054220;28;20393;-82
2022/01/25 13:02:46;;;;;;;115.10;64.15;;;4.50;99.90;;;;;;5055659;28;20041;-81
2022/01/25 13:05:20;;;;;;;84.18;44.30;;;4.40;99.90;;;;;;5049771;28;20130;-81
2022/01/25 13:07:47;;;;;;;146.82;90.75;;;4.50;99.90;;;;;;5040198;28;20367;-82
2022/01/25 13:10:23;;;;;;;71.90;35.47;;;4.50;99.90;;;;;;5052435;28;20100;-81
2022/01/25 13:13:10;;;;;;;61.15;31.80;;;4.50;99.90;;;;;;5053991;28;20395;-81
2022/01/25 13:18:11;;;;;;;79.25;36.60;;;4.40;99.90;;;;;;5050612;28;20049;-82
2022/01/25 13:20:38;;;;;;;67.25;34.03;;;4.50;99.90;;;;;;5043100;28;20064;-81
2022/01/25 13:23:03;;;;;;;70.72;36.20;;;4.50;99.90;;;;;;5036699;28;20044;-81
2022/01/25 13:25:43;;;;;;;66.60;33.22;;;4.50;99.90;;;;;;5036088;28;20056;-81
2022/01/25 13:28:21;;;;;;;63.45;32.38;;;4.60;99.90;;;;;;5045204;28;20052;-81
2022/01/25 13:30:49;;;;;;;65.65;31.70;;;4.50;99.90;;;;;;5056427;28;20048;-81
2022/01/25 13:33:20;;;;;;;82.15;36.17;;;4.50;99.90;;;;;;5057127;28;20047;-82
2022/01/25 13:35:56;;;;;;;61.60;32.85;;;4.50;99.90;;;;;;5056233;28;20403;-81
2022/01/25 13:38:26;;;;;;;67.35;32.28;;;4.50;99.90;;;;;;5043017;28;20044;-81
2022/01/25 13:41:06;;;;;;;71.93;32.22;;;4.50;99.90;;;;;;5041367;28;20041;-81
2022/01/25 13:46:31;;;;;;;76.65;35.97;;;4.40;99.90;;;;;;5039391;28;20053;-81
2022/01/25 13:48:59;;;;;;;65.88;34.30;;;4.40;99.90;;;;;;5052333;28;20045;-81
2022/01/25 13:51:28;;;;;;;68.55;34.28;;;4.40;99.90;;;;;;5055366;28;20400;-81
2022/01/25 13:53:56;;;;;;;69.82;34.63;;;4.40;99.90;;;;;;5043000;28;20090;-83
2022/01/25 13:56:25;;;;;;;67.88;34.45;;;4.40;99.90;;;;;;5049408;28;20037;-82
2022/01/25 13:58:52;;;;;;;69.68;33.63;;;4.30;99.90;;;;;;5038394;28;20392;-82
2022/01/25 14:01:22;;;;;;;67.82;33.25;;;4.30;99.90;;;;;;5041222;28;20041;-82
2022/01/25 14:04:25;;;;;;;65.32;31.90;;;4.30;99.90;;;;;;5055154;28;20029;-81
2022/01/25 14:06:55;;;;;;;77.55;38.30;;;4.30;99.90;;;;;;5035028;28;20041;-81
2022/01/25 14:09:28;;;;;;;72.10;34.50;;;4.30;99.90;;;;;;5020999;28;20041;-81
2022/01/25 14:25:31;;;;;;;67.82;35.58;;;4.30;99.90;;;;;;5036617;28;20045;-83
2022/01/25 14:27:59;;;;;;;68.82;33.45;;;4.30;99.90;;;;;;5032191;28;20082;-82
2022/01/25 14:30:26;;;;;;;66.55;34.58;;;4.30;99.90;;;;;;5037976;28;20064;-81
2022/01/25 14:33:10;;;;;;;72.25;34.70;;;4.30;99.90;;;;;;5040978;28;20045;-83
2022/01/25 14:35:51;;;;;;;67.03;32.80;;;4.30;99.90;;;;;;5049669;28;20068;-85
2022/01/25 14:38:24;;;;;;;74.70;36.65;;;4.40;99.90;;;;;;5061286;28;20037;-84
2022/01/25 14:40:55;;;;;;;66.70;32.95;;;4.40;99.90;;;;;;5045463;28;20112;-81
2022/01/25 14:43:34;;;;;;;67.20;33.00;;;4.40;99.90;;;;;;5050096;28;20129;-80
2022/01/25 14:46:20;;;;;;;65.75;33.38;;;4.40;99.90;;;;;;5050383;28;20064;-80
2022/01/25 14:48:55;;;;;;;73.80;36.30;;;4.30;99.90;;;;;;5043337;28;20094;-80
2022/01/25 14:51:21;;;;;;;62.45;31.88;;;4.30;99.90;;;;;;5031291;28;20053;-83
2022/01/25 14:53:53;;;;;;;67.72;32.58;;;4.30;99.90;;;;;;5042930;28;20052;-81
2022/01/25 14:56:19;;;;;;;69.00;35.53;;;4.30;99.90;;;;;;5045744;28;20079;-82